createdAt,value
2023-06-07T00:00:28.730Z,15.16
2023-06-07T00:02:58.410Z,15.06
2023-06-07T00:05:28.093Z,15.02
2023-06-07T00:07:56.205Z,15.04
2023-06-07T00:10:24.907Z,15.02
2023-06-07T00:12:53.162Z,15.01
2023-06-07T00:15:21.650Z,14.87
2023-06-07T00:17:49.980Z,14.85
2023-06-07T00:20:18.265Z,14.67
2023-06-07T00:22:48.716Z,14.76
2023-06-07T00:25:16.925Z,14.72
2023-06-07T00:27:45.092Z,14.70
2023-06-07T00:30:14.764Z,14.71
2023-06-07T00:32:42.924Z,14.75
2023-06-07T00:35:13.081Z,14.72
2023-06-07T00:37:41.478Z,14.68
2023-06-07T00:40:14.104Z,14.69
2023-06-07T00:42:42.638Z,14.64
2023-06-07T00:45:11.456Z,14.58
2023-06-07T00:47:40.904Z,14.53
2023-06-07T00:50:10.048Z,14.46
2023-06-07T00:52:41.420Z,14.38
2023-06-07T00:55:11.343Z,14.41
2023-06-07T00:57:42.090Z,14.33
2023-06-07T01:00:14.820Z,14.23
2023-06-07T01:02:47.678Z,14.19
2023-06-07T01:05:16.531Z,14.22
2023-06-07T01:07:47.320Z,14.26
2023-06-07T01:10:16.786Z,14.18
2023-06-07T01:12:48.912Z,14.18
2023-06-07T01:15:18.550Z,14.15
2023-06-07T01:17:47.009Z,14.20
2023-06-07T01:20:22.028Z,14.14
2023-06-07T01:22:52.757Z,14.11
2023-06-07T01:25:23.499Z,14.10
2023-06-07T01:29:56.029Z,14.03
2023-06-07T01:32:27.792Z,13.98
2023-06-07T01:34:59.146Z,13.94
2023-06-07T01:37:30.090Z,13.96
2023-06-07T01:39:58.728Z,13.88
2023-06-07T01:42:27.238Z,13.86
2023-06-07T01:44:59.312Z,13.80
2023-06-07T01:47:28.486Z,13.80
2023-06-07T01:49:56.666Z,13.76
2023-06-07T01:52:24.945Z,13.81
2023-06-07T01:54:53.588Z,13.87
2023-06-07T01:57:28.806Z,13.86
2023-06-07T02:00:09.628Z,13.81
2023-06-07T02:02:51.221Z,13.70
2023-06-07T02:05:27.423Z,13.60
2023-06-07T02:07:56.547Z,13.52
2023-06-07T02:10:28.467Z,13.48
2023-06-07T02:12:57.605Z,13.38
2023-06-07T02:15:28.078Z,13.35
2023-06-07T02:17:59.853Z,13.28
2023-06-07T02:20:31.186Z,13.32
2023-06-07T02:23:01.910Z,13.25
2023-06-07T02:25:30.136Z,13.26
2023-06-07T02:28:00.188Z,13.28
2023-06-07T02:30:29.876Z,13.31
2023-06-07T02:32:58.428Z,13.27
2023-06-07T02:35:26.807Z,13.24
2023-06-07T02:37:54.954Z,13.19
2023-06-07T02:40:23.246Z,13.21
2023-06-07T02:42:53.870Z,13.26
2023-06-07T02:45:22.004Z,13.26
2023-06-07T02:47:52.492Z,13.30
2023-06-07T02:50:22.876Z,13.27
2023-06-07T02:52:53.154Z,13.27
2023-06-07T02:55:21.742Z,13.27
2023-06-07T02:57:50.212Z,13.41
2023-06-07T03:00:21.307Z,13.45
2023-06-07T03:03:02.706Z,13.41
2023-06-07T03:05:34.873Z,13.39
2023-06-07T03:08:11.436Z,13.39
2023-06-07T03:10:41.481Z,13.45
2023-06-07T03:13:14.767Z,13.52
2023-06-07T03:15:46.953Z,13.45
2023-06-07T03:18:17.082Z,13.36
2023-06-07T03:20:52.465Z,13.34
2023-06-07T03:23:21.705Z,13.33
2023-06-07T03:25:51.722Z,13.33
2023-06-07T03:28:26.056Z,13.21
2023-06-07T03:30:54.449Z,13.17
2023-06-07T03:33:30.507Z,13.11
2023-06-07T03:36:00.250Z,13.00
2023-06-07T03:38:34.247Z,12.95
2023-06-07T03:41:06.026Z,12.91
2023-06-07T03:43:41.234Z,12.90
2023-06-07T03:46:09.920Z,12.92
2023-06-07T03:48:40.132Z,13.06
2023-06-07T03:51:10.051Z,13.16
2023-06-07T03:53:40.965Z,13.32
2023-06-07T03:56:09.332Z,13.39
2023-06-07T03:58:40.426Z,13.50
2023-06-07T04:01:14.355Z,13.59
2023-06-07T04:03:44.549Z,13.73
2023-06-07T04:06:13.651Z,13.89
2023-06-07T04:08:46.081Z,13.87
2023-06-07T04:11:15.258Z,13.80
2023-06-07T04:13:46.397Z,13.92
2023-06-07T04:16:15.398Z,14.04
2023-06-07T04:18:48.505Z,14.12
2023-06-07T04:21:18.494Z,14.21
2023-06-07T04:23:48.601Z,14.23
2023-06-07T04:26:23.519Z,14.37
2023-06-07T04:28:57.975Z,14.49
2023-06-07T04:31:34.797Z,14.74
2023-06-07T04:34:07.945Z,14.89
2023-06-07T04:36:38.507Z,14.96
2023-06-07T04:39:13.969Z,15.05
2023-06-07T04:41:46.511Z,15.16
2023-06-07T04:44:30.053Z,15.20
2023-06-07T04:47:13.138Z,15.35
2023-06-07T04:49:45.559Z,15.50
2023-06-07T04:52:15.065Z,15.60
2023-06-07T04:54:49.185Z,15.67
2023-06-07T04:57:21.903Z,15.87
2023-06-07T04:59:52.778Z,15.96
2023-06-07T05:02:26.581Z,16.01
2023-06-07T05:04:59.047Z,16.11
2023-06-07T05:07:33.770Z,16.19
2023-06-07T05:10:07.071Z,16.32
2023-06-07T05:12:35.495Z,16.42
2023-06-07T05:15:03.916Z,16.38
2023-06-07T05:17:34.013Z,16.42
2023-06-07T05:20:11.385Z,16.45
2023-06-07T05:22:40.965Z,16.52
2023-06-07T05:25:12.114Z,16.60
2023-06-07T05:27:41.695Z,16.52
2023-06-07T05:30:13.256Z,16.67
2023-06-07T05:32:42.308Z,16.70
2023-06-07T05:35:12.170Z,16.79
2023-06-07T05:37:46.550Z,16.88
2023-06-07T05:40:19.095Z,16.95
2023-06-07T05:42:50.692Z,17.14
2023-06-07T05:45:22.114Z,17.22
2023-06-07T05:47:52.061Z,17.33
2023-06-07T05:50:22.162Z,17.41
2023-06-07T05:52:57.758Z,17.57
2023-06-07T05:55:27.183Z,17.60
2023-06-07T05:57:56.379Z,17.64
2023-06-07T06:00:25.358Z,17.97
2023-06-07T06:02:54.318Z,18.28
2023-06-07T06:05:29.794Z,18.67
2023-06-07T06:07:59.514Z,20.31
2023-06-07T06:10:28.564Z,21.00
2023-06-07T06:12:57.797Z,20.80
2023-06-07T06:15:25.918Z,20.71
2023-06-07T06:17:57.349Z,21.57
2023-06-07T06:20:27.516Z,22.51
2023-06-07T06:22:55.949Z,24.04
2023-06-07T06:25:26.967Z,24.24
2023-06-07T06:30:57.124Z,25.48
2023-06-07T06:33:25.604Z,25.64
2023-06-07T06:35:54.346Z,25.27
2023-06-07T06:38:23.134Z,24.30
2023-06-07T06:40:53.768Z,23.95
2023-06-07T06:43:22.531Z,23.77
2023-06-07T06:45:57.298Z,24.64
2023-06-07T06:48:26.043Z,24.16
2023-06-07T06:50:55.308Z,24.33
2023-06-07T06:53:24.908Z,24.74
2023-06-07T06:55:53.441Z,26.19
2023-06-07T06:58:21.959Z,26.50
2023-06-07T07:00:51.013Z,27.23
2023-06-07T07:03:20.986Z,27.29
2023-06-07T07:05:49.299Z,27.36
2023-06-07T07:08:18.613Z,27.51
2023-06-07T07:10:48.972Z,28.24
2023-06-07T07:13:17.584Z,28.05
2023-06-07T07:15:45.894Z,27.89
2023-06-07T07:18:14.617Z,28.26
2023-06-07T07:20:44.487Z,28.64
2023-06-07T07:23:12.710Z,28.30
2023-06-07T07:25:41.870Z,29.06
2023-06-07T07:28:12.144Z,28.64
2023-06-07T07:30:41.133Z,28.20
2023-06-07T07:33:11.452Z,28.75
2023-06-07T07:35:40.380Z,30.08
2023-06-07T07:38:09.876Z,30.64
2023-06-07T07:40:40.900Z,30.40
2023-06-07T07:43:11.932Z,31.19
2023-06-07T07:45:40.749Z,31.36
2023-06-07T07:48:09.212Z,31.04
2023-06-07T07:50:41.606Z,30.78
2023-06-07T07:53:11.204Z,30.05
2023-06-07T07:55:39.820Z,30.91
2023-06-07T07:58:08.966Z,31.38
2023-06-07T08:00:37.066Z,31.57
2023-06-07T08:03:07.107Z,30.13
2023-06-07T08:05:35.209Z,30.14
2023-06-07T08:08:06.741Z,30.74
2023-06-07T08:10:36.820Z,30.77
2023-06-07T08:13:06.061Z,30.84
2023-06-07T08:15:34.323Z,30.93
2023-06-07T08:18:08.043Z,30.65
2023-06-07T08:20:37.630Z,30.33
2023-06-07T08:23:06.625Z,30.62
2023-06-07T08:25:38.422Z,31.23
2023-06-07T08:28:07.388Z,30.98
2023-06-07T08:30:35.516Z,29.93
2023-06-07T08:33:04.077Z,30.10
2023-06-07T08:35:32.240Z,30.20
2023-06-07T08:38:01.287Z,30.29
2023-06-07T08:40:34.236Z,30.97
2023-06-07T08:43:06.061Z,30.37
2023-06-07T08:45:34.914Z,31.51
2023-06-07T08:48:08.097Z,31.72
2023-06-07T08:50:36.806Z,32.27
2023-06-07T08:53:10.092Z,32.40
2023-06-07T08:55:39.559Z,31.16
2023-06-07T08:58:10.189Z,31.90
2023-06-07T09:00:38.870Z,32.28
2023-06-07T09:03:08.203Z,32.01
2023-06-07T09:05:36.771Z,32.40
2023-06-07T09:08:06.145Z,31.06
2023-06-07T09:10:34.318Z,33.13
2023-06-07T09:13:02.390Z,33.39
2023-06-07T09:15:35.153Z,33.25
2023-06-07T09:18:04.229Z,32.65
2023-06-07T09:20:35.349Z,31.12
2023-06-07T09:23:09.819Z,30.39
2023-06-07T09:25:39.710Z,30.35
2023-06-07T09:28:11.932Z,30.85
2023-06-07T09:30:56.330Z,32.19
2023-06-07T09:33:27.758Z,32.49
2023-06-07T09:36:04.968Z,31.83
2023-06-07T09:38:34.300Z,32.23
2023-06-07T09:41:05.004Z,33.54
2023-06-07T09:43:49.152Z,32.73
2023-06-07T09:46:19.366Z,31.77
2023-06-07T09:48:49.578Z,31.82
2023-06-07T09:51:19.573Z,30.39
2023-06-07T09:53:54.405Z,31.03
2023-06-07T09:56:23.804Z,31.67
2023-06-07T09:59:08.871Z,31.49
2023-06-07T10:01:43.536Z,31.81
2023-06-07T10:04:13.349Z,32.98
2023-06-07T10:06:44.857Z,33.07
2023-06-07T10:09:14.674Z,32.42
2023-06-07T10:11:48.526Z,31.75
2023-06-07T10:14:20.797Z,31.58
2023-06-07T10:16:54.471Z,32.50
2023-06-07T10:19:29.483Z,31.24
2023-06-07T10:21:59.997Z,31.43
2023-06-07T10:24:34.985Z,32.07
2023-06-07T10:27:11.131Z,33.00
2023-06-07T10:29:43.672Z,31.77
2023-06-07T10:32:16.603Z,32.89
2023-06-07T10:34:46.657Z,33.96
2023-06-07T10:37:16.973Z,33.66
2023-06-07T10:39:47.278Z,32.85
2023-06-07T10:42:16.738Z,30.96
2023-06-07T10:44:45.688Z,29.13
2023-06-07T10:47:29.192Z,29.39
2023-06-07T10:49:58.522Z,29.76
2023-06-07T10:52:28.947Z,30.45
2023-06-07T10:54:57.320Z,30.87
2023-06-07T10:57:37.238Z,32.24
2023-06-07T11:00:29.942Z,32.06
2023-06-07T11:03:48.883Z,31.88
2023-06-07T11:06:21.918Z,29.93
2023-06-07T11:08:51.523Z,30.68
2023-06-07T11:11:49.043Z,30.98
2023-06-07T11:14:20.534Z,29.76
2023-06-07T11:16:50.861Z,31.35
2023-06-07T11:19:20.474Z,30.86
2023-06-07T11:22:09.198Z,33.01
2023-06-07T11:24:40.183Z,30.91
2023-06-07T11:27:15.115Z,31.09
2023-06-07T11:32:01.861Z,32.42
2023-06-07T11:34:34.355Z,31.76
2023-06-07T11:37:14.764Z,31.49
2023-06-07T11:39:42.866Z,31.57
2023-06-07T11:42:11.469Z,31.80
2023-06-07T11:44:42.097Z,30.94
2023-06-07T11:47:11.877Z,29.42
2023-06-07T11:49:43.302Z,27.94
2023-06-07T11:52:11.448Z,27.71
2023-06-07T11:54:45.398Z,28.64
2023-06-07T11:57:13.726Z,29.87
2023-06-07T11:59:43.943Z,29.46
2023-06-07T12:02:17.928Z,29.44
2023-06-07T12:04:46.275Z,28.93
2023-06-07T12:07:20.505Z,29.24
2023-06-07T12:09:51.554Z,29.07
2023-06-07T12:12:19.756Z,28.10
2023-06-07T12:14:52.646Z,28.42
2023-06-07T12:17:22.708Z,27.69
2023-06-07T12:19:50.996Z,28.30
2023-06-07T12:22:19.977Z,28.61
2023-06-07T12:24:48.774Z,28.63
2023-06-07T12:27:17.729Z,28.32
2023-06-07T12:29:46.378Z,27.56
2023-06-07T12:32:14.534Z,27.37
2023-06-07T12:34:46.805Z,26.27
2023-06-07T12:37:15.033Z,26.05
2023-06-07T12:39:43.360Z,26.44
2023-06-07T12:42:12.031Z,27.32
2023-06-07T12:44:40.237Z,27.07
2023-06-07T12:47:09.618Z,26.80
2023-06-07T12:49:37.910Z,26.56
2023-06-07T12:52:08.803Z,26.56
2023-06-07T12:54:36.977Z,26.69
2023-06-07T12:57:06.196Z,27.15
2023-06-07T12:59:34.338Z,27.12
2023-06-07T13:02:02.575Z,27.33
2023-06-07T13:07:22.965Z,26.67
2023-06-07T13:09:51.230Z,26.16
2023-06-07T13:12:19.933Z,26.63
2023-06-07T13:14:48.172Z,26.89
2023-06-07T13:17:17.245Z,27.08
2023-06-07T13:19:48.138Z,27.22
2023-06-07T13:22:16.294Z,27.33
2023-06-07T13:24:45.737Z,26.58
2023-06-07T13:27:14.192Z,26.23
2023-06-07T13:29:43.907Z,26.46
2023-06-07T13:32:12.335Z,26.72
2023-06-07T13:34:40.812Z,26.25
2023-06-07T13:37:09.157Z,26.07
2023-06-07T13:39:37.799Z,26.57
2023-06-07T13:42:10.241Z,26.60
2023-06-07T13:44:38.502Z,26.42
2023-06-07T13:47:10.261Z,26.69
2023-06-07T13:49:38.908Z,26.23
2023-06-07T13:52:08.015Z,26.08
2023-06-07T13:54:36.246Z,26.01
2023-06-07T13:57:07.187Z,25.96
2023-06-07T13:59:36.695Z,26.05
2023-06-07T14:02:05.160Z,25.83
2023-06-07T14:04:36.137Z,25.62
2023-06-07T14:07:05.380Z,25.76
2023-06-07T14:09:33.466Z,25.92
2023-06-07T14:12:01.799Z,25.75
2023-06-07T14:14:30.219Z,25.64
2023-06-07T14:17:00.372Z,25.37
2023-06-07T14:19:31.097Z,25.68
2023-06-07T14:21:59.264Z,25.94
2023-06-07T14:24:29.903Z,26.06
2023-06-07T14:26:58.221Z,26.05
2023-06-07T14:29:26.378Z,25.74
2023-06-07T14:31:54.745Z,25.63
2023-06-07T14:34:25.043Z,25.69
2023-06-07T14:36:54.059Z,25.59
2023-06-07T14:39:22.491Z,24.91
2023-06-07T14:41:50.847Z,25.32
2023-06-07T14:44:19.678Z,25.47
2023-06-07T14:46:51.212Z,25.43
2023-06-07T14:49:19.299Z,25.61
2023-06-07T14:51:49.619Z,25.70
2023-06-07T14:54:18.027Z,25.65
2023-06-07T14:56:46.476Z,25.68
2023-06-07T14:59:14.954Z,25.96
2023-06-07T15:01:43.194Z,25.70
2023-06-07T15:04:11.606Z,25.66
2023-06-07T15:06:39.984Z,25.46
2023-06-07T15:09:09.497Z,25.70
2023-06-07T15:11:37.706Z,25.80
2023-06-07T15:14:11.226Z,25.79
2023-06-07T15:16:40.979Z,25.74
2023-06-07T15:19:11.406Z,25.80
2023-06-07T15:21:39.609Z,25.91
2023-06-07T15:24:11.848Z,26.05
2023-06-07T15:26:41.949Z,25.98
2023-06-07T15:29:12.803Z,26.27
2023-06-07T15:31:40.994Z,26.44
2023-06-07T15:34:09.322Z,26.63
2023-06-07T15:36:38.119Z,26.67
2023-06-07T15:39:06.362Z,26.49
2023-06-07T15:41:36.058Z,26.47
2023-06-07T15:44:04.694Z,26.23
2023-06-07T15:46:32.919Z,26.31
2023-06-07T15:49:01.042Z,26.24
2023-06-07T15:51:30.958Z,26.17
2023-06-07T15:53:59.182Z,26.29
2023-06-07T15:56:27.576Z,26.35
2023-06-07T15:58:57.211Z,26.36
2023-06-07T16:01:25.435Z,26.16
2023-06-07T16:03:57.172Z,26.13
2023-06-07T16:06:28.231Z,26.35
2023-06-07T16:08:56.753Z,26.50
2023-06-07T16:11:24.986Z,26.57
2023-06-07T16:13:53.390Z,26.55
2023-06-07T16:16:23.078Z,26.35
2023-06-07T16:18:52.981Z,26.52
2023-06-07T16:21:21.767Z,26.34
2023-06-07T16:23:50.867Z,26.25
2023-06-07T16:26:19.226Z,25.96
2023-06-07T16:28:49.814Z,25.69
2023-06-07T16:32:57.118Z,25.60
2023-06-07T16:35:28.527Z,25.42
2023-06-07T16:37:56.665Z,25.30
2023-06-07T16:40:29.701Z,25.19
2023-06-07T16:42:57.918Z,25.08
2023-06-07T16:45:27.395Z,25.08
2023-06-07T16:48:03.045Z,24.94
2023-06-07T16:50:34.413Z,24.96
2023-06-07T16:53:02.797Z,24.81
2023-06-07T16:55:30.983Z,24.70
2023-06-07T16:57:59.810Z,24.61
2023-06-07T17:00:30.122Z,24.59
2023-06-07T17:02:59.915Z,24.48
2023-06-07T17:05:31.115Z,24.44
2023-06-07T17:07:59.404Z,24.44
2023-06-07T17:10:31.919Z,24.43
2023-06-07T17:13:00.478Z,24.39
2023-06-07T17:15:28.870Z,24.41
2023-06-07T17:17:57.063Z,24.57
2023-06-07T17:20:27.045Z,24.78
2023-06-07T17:22:57.810Z,24.85
2023-06-07T17:25:26.340Z,25.01
2023-06-07T17:27:54.686Z,25.14
2023-06-07T17:30:22.839Z,25.25
2023-06-07T17:32:53.583Z,25.40
2023-06-07T17:35:21.755Z,25.37
2023-06-07T17:37:51.546Z,25.38
2023-06-07T17:40:19.752Z,25.37
2023-06-07T17:42:48.056Z,25.38
2023-06-07T17:45:16.122Z,25.41
2023-06-07T17:47:48.920Z,25.44
2023-06-07T17:50:18.411Z,25.15
2023-06-07T17:52:51.637Z,25.09
2023-06-07T17:55:19.848Z,24.89
2023-06-07T17:57:50.471Z,24.59
2023-06-07T18:00:19.556Z,24.22
2023-06-07T18:02:50.864Z,24.10
2023-06-07T18:05:21.899Z,23.94
2023-06-07T18:07:51.382Z,23.77
2023-06-07T18:10:19.932Z,23.66
2023-06-07T18:12:50.486Z,23.51
2023-06-07T18:15:18.613Z,23.41
2023-06-07T18:17:47.144Z,23.36
2023-06-07T18:20:17.446Z,23.28
2023-06-07T18:22:47.795Z,23.20
2023-06-07T18:25:18.603Z,23.10
2023-06-07T18:27:48.988Z,23.00
2023-06-07T18:30:17.747Z,22.94
2023-06-07T18:32:46.930Z,22.87
2023-06-07T18:35:15.344Z,22.82
2023-06-07T18:37:45.898Z,22.73
2023-06-07T18:40:34.013Z,22.69
2023-06-07T18:43:02.251Z,22.64
2023-06-07T18:45:31.203Z,22.57
2023-06-07T18:47:59.667Z,22.51
2023-06-07T18:50:27.931Z,22.45
2023-06-07T18:52:57.418Z,22.40
2023-06-07T18:55:25.919Z,22.34
2023-06-07T18:57:57.932Z,22.26
2023-06-07T19:00:29.837Z,22.20
2023-06-07T19:02:58.037Z,22.17
2023-06-07T19:05:26.412Z,22.17
2023-06-07T19:07:54.680Z,22.09
2023-06-07T19:10:25.373Z,22.07
2023-06-07T19:12:53.469Z,21.96
2023-06-07T19:15:23.400Z,21.91
2023-06-07T19:17:51.727Z,21.88
2023-06-07T19:20:20.406Z,21.89
2023-06-07T19:22:50.973Z,21.82
2023-06-07T19:25:19.182Z,21.83
2023-06-07T19:27:47.316Z,21.82
2023-06-07T19:30:16.316Z,21.72
2023-06-07T19:32:45.927Z,21.74
2023-06-07T19:35:14.652Z,21.74
2023-06-07T19:37:43.024Z,21.69
2023-06-07T19:40:17.274Z,21.60
2023-06-07T19:42:46.309Z,21.53
2023-06-07T19:45:15.067Z,21.47
2023-06-07T19:47:45.367Z,21.36
2023-06-07T19:50:13.416Z,21.33
2023-06-07T19:52:42.055Z,21.26
2023-06-07T19:55:12.458Z,21.22
2023-06-07T19:57:42.762Z,21.16
2023-06-07T20:00:11.958Z,21.19
2023-06-07T20:02:46.201Z,21.08
2023-06-07T20:05:14.641Z,21.00
2023-06-07T20:07:42.857Z,20.88
2023-06-07T20:10:11.705Z,20.83
2023-06-07T20:12:40.856Z,20.71
2023-06-07T20:15:11.467Z,20.65
2023-06-07T20:17:41.888Z,20.62
2023-06-07T20:20:12.730Z,20.55
2023-06-07T20:22:40.950Z,20.61
2023-06-07T20:25:09.835Z,20.56
2023-06-07T20:27:38.683Z,20.46
2023-06-07T20:30:08.670Z,20.36
2023-06-07T20:32:39.835Z,20.25
2023-06-07T20:35:08.971Z,20.16
2023-06-07T20:37:40.935Z,20.08
2023-06-07T20:40:13.779Z,20.07
2023-06-07T20:42:44.835Z,20.05
2023-06-07T20:45:14.534Z,20.01
2023-06-07T20:47:43.575Z,19.97
2023-06-07T20:50:14.413Z,19.89
2023-06-07T20:52:44.924Z,19.78
2023-06-07T20:55:13.603Z,19.71
2023-06-07T20:57:45.569Z,19.67
2023-06-07T21:00:17.690Z,19.61
2023-06-07T21:02:45.890Z,19.55
2023-06-07T21:05:16.919Z,19.46
2023-06-07T21:07:48.801Z,19.51
2023-06-07T21:10:17.408Z,19.47
2023-06-07T21:12:46.023Z,19.40
2023-06-07T21:15:16.796Z,19.32
2023-06-07T21:17:47.959Z,19.30
2023-06-07T21:20:16.418Z,19.28
2023-06-07T21:22:44.989Z,19.22
2023-06-07T21:25:14.563Z,19.18
2023-06-07T21:27:43.046Z,19.15
2023-06-07T21:30:11.577Z,19.17
2023-06-07T21:34:02.327Z,19.07
2023-06-07T21:36:31.244Z,19.10
2023-06-07T21:38:59.473Z,19.06
2023-06-07T21:41:30.934Z,18.97
2023-06-07T21:44:03.786Z,18.94
2023-06-07T21:46:32.712Z,18.90
2023-06-07T21:49:05.124Z,18.91
2023-06-07T21:51:37.860Z,18.88
2023-06-07T21:54:09.111Z,18.82
2023-06-07T21:56:37.841Z,18.81
2023-06-07T21:59:06.121Z,18.78
2023-06-07T22:01:34.379Z,18.72
2023-06-07T22:04:06.603Z,18.70
2023-06-07T22:06:34.993Z,18.70
2023-06-07T22:09:06.875Z,18.72
2023-06-07T22:11:35.300Z,18.70
2023-06-07T22:14:04.220Z,18.70
2023-06-07T22:16:35.135Z,18.63
2023-06-07T22:19:09.409Z,18.57
2023-06-07T22:21:37.610Z,18.50
2023-06-07T22:24:06.453Z,18.47
2023-06-07T22:26:34.653Z,18.40
2023-06-07T22:29:04.870Z,18.35
2023-06-07T22:31:34.878Z,18.34
2023-06-07T22:34:05.069Z,18.34
2023-06-07T22:36:39.337Z,18.29
2023-06-07T22:39:07.776Z,18.27
2023-06-07T22:41:36.758Z,18.25
2023-06-07T22:44:05.213Z,18.24
2023-06-07T22:46:34.927Z,18.24
2023-06-07T22:49:04.188Z,18.21
2023-06-07T22:51:35.174Z,18.18
2023-06-07T22:54:04.482Z,18.15
2023-06-07T22:56:33.156Z,18.04
2023-06-07T22:59:01.911Z,18.09
2023-06-07T23:01:32.691Z,18.10
2023-06-07T23:04:04.148Z,18.09
2023-06-07T23:06:34.473Z,18.04
2023-06-07T23:09:03.963Z,18.02
2023-06-07T23:11:33.504Z,17.99
2023-06-07T23:14:02.110Z,18.02
2023-06-07T23:16:30.288Z,18.02
2023-06-07T23:19:03.895Z,17.97
2023-06-07T23:21:34.220Z,17.95
2023-06-07T23:24:05.710Z,17.91
2023-06-07T23:26:34.044Z,17.88
2023-06-07T23:29:02.322Z,17.89
2023-06-07T23:31:33.268Z,17.85
2023-06-07T23:34:01.443Z,17.81
2023-06-07T23:36:32.785Z,17.77
2023-06-07T23:39:02.341Z,17.71
2023-06-07T23:41:36.204Z,17.65
2023-06-07T23:44:05.125Z,17.64
2023-06-07T23:46:33.753Z,17.61
2023-06-07T23:49:04.803Z,17.52
2023-06-07T23:51:35.974Z,17.46
2023-06-07T23:54:05.543Z,17.39
2023-06-07T23:56:33.984Z,17.29
2023-06-07T23:59:02.757Z,17.24
